Time;durP1;ratioP1;P1;durP2;ratioP2;P2;SDS_P1;SDS_P2;PMS_P1;PMS_P2;Temp;Humidity;BMP_temperature;BMP_pressure;BME280_temperature;BME280_humidity;BME280_pressure;Samples;Min_cycle;Max_cycle;Signal;HPM_P1;HPM_P2
2020/12/07 00:00:55;;;;;;;;;;;;;;;4.15;100.00;98924.34;4843793;29;20468;-79
2020/12/07 00:03:21;;;;;;;;;;;;;;;4.13;100.00;98917.63;4844139;29;20373;-79
2020/12/07 00:05:48;;;;;;;;;;;;;;;4.01;100.00;98901.34;4843800;29;19997;-79
2020/12/07 00:08:14;;;;;;;;;;;;;;;3.98;100.00;98908.44;4843878;29;19929;-80
2020/12/07 00:10:41;;;;;;;;;;;;;;;3.88;100.00;98902.84;4844732;29;19939;-79
2020/12/07 00:13:07;;;;;;;;;;;;;;;3.80;100.00;98887.38;4845029;29;19928;-79
2020/12/07 00:15:35;;;;;;;;;;;;;;;3.76;100.00;98884.56;4828639;29;19960;-80
2020/12/07 00:18:01;;;;;;;;;;;;;;;3.75;100.00;98877.47;4843669;29;20470;-80
2020/12/07 00:20:28;;;;;;;;;;;;;;;3.74;100.00;98870.38;4843534;29;20342;-80
2020/12/07 00:22:57;;;;;;;;;;;;;;;3.73;100.00;98863.22;4843739;29;20322;-79
2020/12/07 00:25:24;;;;;;;;;;;;;;;3.74;100.00;98868.38;4843329;29;20031;-79
2020/12/07 00:27:50;;;;;;;;;;;;;;;3.81;100.00;98873.16;4843744;29;19988;-80
2020/12/07 00:30:17;;;;;;;;;;;;;;;3.83;100.00;98868.06;4858761;29;19928;-79
2020/12/07 00:32:43;;;;;;;;;;;;;;;3.88;100.00;98875.97;4843660;29;19977;-80
2020/12/07 00:35:10;;;;;;;;;;;;;;;3.97;100.00;98873.66;4843347;29;19928;-79
2020/12/07 00:37:36;;;;;;;;;;;;;;;3.99;100.00;98873.28;4844375;29;19981;-79
2020/12/07 00:40:03;;;;;;;;;;;;;;;4.02;100.00;98869.75;4843185;29;20325;-79
2020/12/07 00:42:30;;;;;;;;;;;;;;;3.89;100.00;98863.75;4844517;29;19939;-80
2020/12/07 00:44:57;;;;;;;;;;;;;;;3.86;100.00;98856.25;4827943;29;20026;-79
2020/12/07 00:47:23;;;;;;;;;;;;;;;3.83;100.00;98845.16;4843591;29;19935;-80
2020/12/07 00:49:50;;;;;;;;;;;;;;;3.86;100.00;98845.19;4858360;29;20015;-79
2020/12/07 00:52:16;;;;;;;;;;;;;;;3.81;100.00;98841.97;4842827;29;20019;-80
2020/12/07 00:54:44;;;;;;;;;;;;;;;3.72;100.00;98828.50;4858030;29;19933;-79
2020/12/07 00:57:10;;;;;;;;;;;;;;;3.67;100.00;98817.78;4828141;29;19939;-80
2020/12/07 00:59:39;;;;;;;;;;;;;;;3.64;100.00;98821.31;4858404;29;20400;-79
2020/12/07 01:02:06;;;;;;;;;;;;;;;3.65;100.00;98822.91;4858553;29;19932;-79
2020/12/07 01:04:32;;;;;;;;;;;;;;;3.64;100.00;98822.13;4844004;29;19935;-79
2020/12/07 01:07:03;;;;;;;;;;;;;;;3.60;100.00;98806.69;4842710;29;20278;-79
2020/12/07 01:09:30;;;;;;;;;;;;;;;3.60;100.00;98821.28;4826856;29;19932;-79
2020/12/07 01:11:59;;;;;;;;;;;;;;;3.61;100.00;98816.56;4842905;29;20270;-79
2020/12/07 01:14:34;;;;;;;;;;;;;;;3.60;100.00;98814.97;4842600;29;19934;-80
2020/12/07 01:17:02;;;;;;;;;;;;;;;3.66;100.00;98807.91;4842134;29;19929;-80
2020/12/07 01:19:30;;;;;;;;;;;;;;;3.65;100.00;98814.59;4857193;29;19939;-79
2020/12/07 01:21:58;;;;;;;;;;;;;;;3.70;100.00;98805.97;4857418;29;20015;-79
2020/12/07 01:24:24;;;;;;;;;;;;;;;3.70;100.00;98808.72;4841753;29;19932;-79
2020/12/07 01:26:52;;;;;;;;;;;;;;;3.64;100.00;98810.28;4841922;29;19952;-79
2020/12/07 01:29:20;;;;;;;;;;;;;;;3.62;100.00;98807.88;4826924;29;19972;-79
2020/12/07 01:31:48;;;;;;;;;;;;;;;3.65;100.00;98806.31;4841533;29;19959;-79
2020/12/07 01:34:15;;;;;;;;;;;;;;;3.64;100.00;98807.50;4856961;29;19961;-79
2020/12/07 01:36:41;;;;;;;;;;;;;;;3.64;100.00;98810.28;4841144;29;20027;-79
2020/12/07 01:39:08;;;;;;;;;;;;;;;3.68;100.00;98813.88;4841472;29;20372;-79
2020/12/07 01:41:36;;;;;;;;;;;;;;;3.70;100.00;98809.53;4857284;29;20015;-79
2020/12/07 01:44:03;;;;;;;;;;;;;;;3.68;100.00;98805.59;4857438;29;19935;-79
2020/12/07 01:46:30;;;;;;;;;;;;;;;3.73;100.00;98803.25;4857122;29;20396;-80
2020/12/07 01:49:01;;;;;;;;;;;;;;;3.79;100.00;98803.66;4826061;29;19932;-80
2020/12/07 01:51:28;;;;;;;;;;;;;;;3.80;100.00;98802.50;4841236;29;19932;-80
2020/12/07 01:53:55;;;;;;;;;;;;;;;3.81;100.00;98792.22;4841666;29;20019;-80
2020/12/07 01:56:28;;;;;;;;;;;;;;;3.72;100.00;98779.56;4841274;29;20031;-80
2020/12/07 01:58:59;;;;;;;;;;;;;;;3.69;100.00;98791.38;4841227;29;19928;-80
2020/12/07 02:01:36;;;;;;;;;;;;;;;3.63;100.00;98775.53;4841823;29;19928;-79
2020/12/07 02:04:03;;;;;;;;;;;;;;;3.55;100.00;98776.66;4826989;29;19929;-79
2020/12/07 02:06:29;;;;;;;;;;;;;;;3.55;100.00;98773.91;4857266;29;19928;-80
2020/12/07 02:08:56;;;;;;;;;;;;;;;3.60;100.00;98776.31;4842269;29;19936;-80
2020/12/07 02:11:24;;;;;;;;;;;;;;;3.56;100.00;98776.28;4857634;29;19951;-80
2020/12/07 02:13:51;;;;;;;;;;;;;;;3.51;100.00;98770.31;4857725;29;19929;-80
2020/12/07 02:16:19;;;;;;;;;;;;;;;3.43;100.00;98760.38;4826891;29;20358;-79
2020/12/07 02:18:57;;;;;;;;;;;;;;;3.41;100.00;98751.69;4857401;29;19928;-80
2020/12/07 02:21:25;;;;;;;;;;;;;;;3.40;100.00;98744.59;4858976;29;19933;-80
2020/12/07 02:24:09;;;;;;;;;;;;;;;3.41;100.00;98741.44;4845577;29;19928;-80
2020/12/07 02:26:37;;;;;;;;;;;;;;;3.43;100.00;98732.78;4845726;29;19935;-80
2020/12/07 02:29:04;;;;;;;;;;;;;;;3.47;100.00;98725.28;4860926;29;19932;-80
2020/12/07 02:31:37;;;;;;;;;;;;;;;3.49;100.00;98725.72;4845633;29;19928;-80
2020/12/07 02:34:03;;;;;;;;;;;;;;;3.52;100.00;98727.69;4814609;29;19929;-79
2020/12/07 02:36:31;;;;;;;;;;;;;;;3.51;100.00;98723.38;4859079;29;19939;-80
2020/12/07 02:39:07;;;;;;;;;;;;;;;3.59;100.00;98730.50;4860489;29;19928;-80
2020/12/07 02:41:43;;;;;;;;;;;;;;;3.65;100.00;98728.97;4831409;29;19928;-79
2020/12/07 02:44:11;;;;;;;;;;;;;;;3.61;100.00;98723.44;4860603;29;19928;-79
2020/12/07 02:46:38;;;;;;;;;;;;;;;3.58;100.00;98723.41;4844778;29;19928;-80
2020/12/07 02:49:06;;;;;;;;;;;;;;;3.53;100.00;98712.69;4844919;29;19929;-79
2020/12/07 02:51:35;;;;;;;;;;;;;;;3.38;100.00;98709.06;4845025;29;19929;-79
2020/12/07 02:54:02;;;;;;;;;;;;;;;3.25;100.00;98712.53;4860535;29;19970;-80
2020/12/07 02:56:31;;;;;;;;;;;;;;;3.17;100.00;98706.16;4829590;29;20292;-79
2020/12/07 02:58:58;;;;;;;;;;;;;;;3.13;100.00;98705.34;4845103;29;20023;-80
2020/12/07 03:01:24;;;;;;;;;;;;;;;3.15;100.00;98688.41;4846135;29;20027;-79
2020/12/07 03:03:51;;;;;;;;;;;;;;;3.21;100.00;98693.16;4844698;29;19938;-80
2020/12/07 03:06:19;;;;;;;;;;;;;;;3.20;100.00;98685.25;4859983;29;19935;-80
2020/12/07 03:08:47;;;;;;;;;;;;;;;3.25;100.00;98690.44;4845071;29;19932;-80
2020/12/07 03:11:16;;;;;;;;;;;;;;;3.21;100.00;98684.13;4829510;29;19928;-80
2020/12/07 03:13:44;;;;;;;;;;;;;;;3.24;100.00;98691.63;4845888;29;19968;-79
2020/12/07 03:16:10;;;;;;;;;;;;;;;3.36;100.00;98699.59;4844828;29;19968;-80
2020/12/07 03:18:38;;;;;;;;;;;;;;;3.27;100.00;98691.63;4859725;29;19929;-80
2020/12/07 03:21:08;;;;;;;;;;;;;;;3.21;100.00;98686.88;4844509;29;19936;-80
2020/12/07 03:23:36;;;;;;;;;;;;;;;3.18;100.00;98682.13;4844636;29;20357;-80
2020/12/07 03:26:10;;;;;;;;;;;;;;;3.13;100.00;98660.38;4844587;29;20293;-79
2020/12/07 03:28:38;;;;;;;;;;;;;;;3.08;100.00;98669.00;4844573;29;19933;-80
2020/12/07 03:31:05;;;;;;;;;;;;;;;2.98;100.00;98655.94;4844521;29;19929;-80
2020/12/07 03:33:32;;;;;;;;;;;;;;;3.00;100.00;98659.13;4812935;29;19935;-80
2020/12/07 03:35:59;;;;;;;;;;;;;;;2.85;100.00;98651.88;4844302;29;20021;-80
2020/12/07 03:38:28;;;;;;;;;;;;;;;2.71;100.00;98635.22;4844552;29;19968;-80
2020/12/07 03:40:55;;;;;;;;;;;;;;;2.62;100.00;98638.28;4844229;29;19936;-80
2020/12/07 03:43:42;;;;;;;;;;;;;;;2.48;100.00;98624.41;4843940;29;19972;-80
2020/12/07 03:46:09;;;;;;;;;;;;;;;2.34;100.00;98609.69;4828645;29;20355;-79
2020/12/07 03:48:37;;;;;;;;;;;;;;;2.22;100.00;98602.50;4844543;29;19963;-79
2020/12/07 03:51:07;;;;;;;;;;;;;;;2.12;100.00;98605.16;4844034;29;20400;-80
2020/12/07 03:53:36;;;;;;;;;;;;;;;2.06;100.00;98607.44;4828636;29;20023;-80
2020/12/07 03:56:03;;;;;;;;;;;;;;;2.04;100.00;98606.25;4843899;29;19929;-79
2020/12/07 03:58:31;;;;;;;;;;;;;;;1.96;100.00;98590.78;4843984;29;19975;-79
2020/12/07 04:00:58;;;;;;;;;;;;;;;1.88;100.00;98594.66;4843507;29;19951;-79
2020/12/07 04:03:26;;;;;;;;;;;;;;;1.74;100.00;98581.53;4843987;29;19936;-80
2020/12/07 04:06:13;;;;;;;;;;;;;;;1.66;100.00;98583.41;4859370;29;19928;-80
2020/12/07 04:08:40;;;;;;;;;;;;;;;1.64;100.00;98566.47;4859292;29;19932;-79
2020/12/07 04:11:06;;;;;;;;;;;;;;;1.62;100.00;98562.50;4859023;29;19964;-80
2020/12/07 04:13:33;;;;;;;;;;;;;;;1.56;100.00;98570.28;4844771;29;19967;-79
2020/12/07 04:16:01;;;;;;;;;;;;;;;1.54;100.00;98571.84;4858698;29;19986;-80
2020/12/07 04:18:28;;;;;;;;;;;;;;;1.46;100.00;98559.16;4843718;29;19929;-80
2020/12/07 04:20:55;;;;;;;;;;;;;;;1.35;100.00;98547.22;4858840;29;19928;-80
2020/12/07 04:23:22;;;;;;;;;;;;;;;1.27;100.00;98548.34;4843509;29;19932;-80
2020/12/07 04:25:48;;;;;;;;;;;;;;;1.18;100.00;98545.84;4844771;29;19986;-80
2020/12/07 04:28:15;;;;;;;;;;;;;;;1.17;100.00;98551.72;4858634;29;19951;-80
2020/12/07 04:30:41;;;;;;;;;;;;;;;1.13;100.00;98546.19;4858454;29;19929;-80
2020/12/07 04:33:08;;;;;;;;;;;;;;;1.04;100.00;98540.19;4843649;29;19960;-80
2020/12/07 04:35:34;;;;;;;;;;;;;;;1.13;100.00;98543.44;4858577;29;19981;-79
2020/12/07 04:38:01;;;;;;;;;;;;;;;1.27;100.00;98549.09;4828434;29;19932;-79
2020/12/07 04:40:28;;;;;;;;;;;;;;;1.35;100.00;98549.97;4858334;29;19928;-79
2020/12/07 04:42:55;;;;;;;;;;;;;;;1.36;100.00;98555.09;4843243;29;19929;-80
2020/12/07 04:45:22;;;;;;;;;;;;;;;1.42;100.00;98559.13;4844077;29;19933;-80
2020/12/07 04:47:52;;;;;;;;;;;;;;;1.53;100.00;98565.53;4858361;29;20333;-79
2020/12/07 04:50:20;;;;;;;;;;;;;;;1.56;100.00;98570.28;4843200;29;19951;-79
2020/12/07 04:52:50;;;;;;;;;;;;;;;1.59;100.00;98568.78;4858304;29;19928;-79
2020/12/07 04:55:16;;;;;;;;;;;;;;;1.59;100.00;98564.03;4843983;29;20340;-80
2020/12/07 04:57:43;;;;;;;;;;;;;;;1.59;100.00;98566.78;4842819;29;19928;-79
2020/12/07 05:00:11;;;;;;;;;;;;;;;1.56;100.00;98564.03;4842611;29;19936;-80
2020/12/07 05:02:38;;;;;;;;;;;;;;;1.51;100.00;98573.41;4858112;29;19956;-80
2020/12/07 05:05:05;;;;;;;;;;;;;;;1.66;100.00;98580.66;4858152;29;20361;-80
2020/12/07 05:07:35;;;;;;;;;;;;;;;1.62;100.00;98576.28;4842565;29;19956;-79
2020/12/07 05:10:11;;;;;;;;;;;;;;;1.54;100.00;98572.66;4843875;29;20342;-79
2020/12/07 05:12:43;;;;;;;;;;;;;;;1.54;100.00;98567.16;4843952;29;19932;-80
2020/12/07 05:15:14;;;;;;;;;;;;;;;1.58;100.00;98562.47;4857253;29;20160;-79
2020/12/07 05:17:40;;;;;;;;;;;;;;;1.62;100.00;98574.31;4842647;29;20315;-79
2020/12/07 05:20:07;;;;;;;;;;;;;;;1.62;100.00;98568.78;4844112;29;19933;-80
2020/12/07 05:22:34;;;;;;;;;;;;;;;1.62;100.00;98565.25;4843870;29;20273;-79
2020/12/07 05:25:03;;;;;;;;;;;;;;;1.63;100.00;98564.88;4843385;29;19981;-79
2020/12/07 05:27:30;;;;;;;;;;;;;;;1.63;100.00;98564.88;4842469;29;19964;-79
2020/12/07 05:32:36;;;;;;;;;;;;;;;1.67;100.00;98582.22;4842431;29;19928;-79
2020/12/07 05:35:04;;;;;;;;;;;;;;;1.68;100.00;98572.78;4843665;29;19929;-79
2020/12/07 05:37:35;;;;;;;;;;;;;;;1.73;100.00;98583.47;4842354;29;19993;-79
2020/12/07 05:40:12;;;;;;;;;;;;;;;1.78;100.00;98577.66;4857558;29;20032;-80
2020/12/07 05:42:39;;;;;;;;;;;;;;;1.82;100.00;98583.19;4857668;29;19929;-79
2020/12/07 05:45:06;;;;;;;;;;;;;;;1.86;100.00;98579.28;4842491;29;19932;-79
2020/12/07 05:47:33;;;;;;;;;;;;;;;1.91;100.00;98589.16;4843492;29;20357;-80
2020/12/07 05:50:03;;;;;;;;;;;;;;;1.91;100.00;98591.94;4842322;29;19960;-79
2020/12/07 05:52:46;;;;;;;;;;;;;;;1.92;100.00;98601.00;4842768;29;19928;-79
2020/12/07 05:55:14;;;;;;;;;;;;;;;1.92;100.00;98591.53;4842257;29;19928;-80
2020/12/07 05:58:01;;;;;;;;;;;;;;;1.99;100.00;98601.06;4845790;29;19929;-79
2020/12/07 06:00:29;;;;;;;;;;;;;;;2.02;100.00;98592.03;4846018;29;20346;-79
2020/12/07 06:02:55;;;;;;;;;;;;;;;2.07;100.00;98594.47;4830820;29;20361;-79
2020/12/07 06:05:23;;;;;;;;;;;;;;;2.09;100.00;98597.63;4861213;29;19928;-79
2020/12/07 06:08:06;;;;;;;;;;;;;;;2.10;100.00;98604.72;4846882;29;19972;-79
2020/12/07 06:10:36;;;;;;;;;;;;;;;2.18;100.00;98611.91;4860962;29;20377;-79
2020/12/07 06:13:04;;;;;;;;;;;;;;;2.21;100.00;98620.22;4846760;29;20377;-80
2020/12/07 06:15:31;;;;;;;;;;;;;;;2.20;100.00;98609.53;4845694;29;19929;-79
2020/12/07 06:17:57;;;;;;;;;;;;;;;2.19;100.00;98607.97;4846879;29;19929;-79
2020/12/07 06:20:31;;;;;;;;;;;;;;;2.22;100.00;98618.22;4845906;29;19932;-79
2020/12/07 06:23:05;;;;;;;;;;;;;;;2.39;100.00;98620.38;4846910;29;20365;-79
2020/12/07 06:25:32;;;;;;;;;;;;;;;2.47;100.00;98613.75;4845421;29;20323;-79
2020/12/07 06:28:00;;;;;;;;;;;;;;;2.39;100.00;98612.91;4845718;29;19939;-80
2020/12/07 06:30:35;;;;;;;;;;;;;;;2.30;100.00;98612.41;4845730;29;19928;-79
2020/12/07 06:33:06;;;;;;;;;;;;;;;2.22;100.00;98601.69;4845683;29;19939;-80
2020/12/07 06:35:42;;;;;;;;;;;;;;;2.24;100.00;98599.34;4845437;29;20312;-79
2020/12/07 06:38:08;;;;;;;;;;;;;;;2.22;100.00;98612.72;4845441;29;19935;-80
2020/12/07 06:40:36;;;;;;;;;;;;;;;2.22;100.00;98610.75;4846271;29;19935;-80
2020/12/07 06:43:16;;;;;;;;;;;;;;;2.30;100.00;98612.41;4845435;29;19936;-79
2020/12/07 06:45:42;;;;;;;;;;;;;;;2.33;100.00;98619.13;4845321;29;19928;-79
2020/12/07 06:48:10;;;;;;;;;;;;;;;2.32;100.00;98603.78;4860385;29;19929;-79
2020/12/07 06:50:38;;;;;;;;;;;;;;;2.36;100.00;98612.84;4846550;29;20293;-76
2020/12/07 06:53:36;;;;;;;;;;;;;;;2.39;100.00;98612.09;4836959;29;19929;-78
2020/12/07 06:56:03;;;;;;;;;;;;;;;2.26;100.00;98619.06;4842229;29;19955;-78
2020/12/07 06:58:33;;;;;;;;;;;;;;;2.15;100.00;98618.16;4856200;29;19929;-79
2020/12/07 07:01:10;;;;;;;;;;;;;;;2.16;100.00;98614.22;4843022;29;19928;-79
2020/12/07 07:03:45;;;;;;;;;;;;;;;2.19;100.00;98613.47;4826930;29;20339;-80
2020/12/07 07:06:18;;;;;;;;;;;;;;;2.20;100.00;98615.03;4857025;29;19968;-79
2020/12/07 07:08:45;;;;;;;;;;;;;;;2.29;100.00;98624.59;4837769;29;19933;-79
2020/12/07 07:11:13;;;;;;;;;;;;;;;2.39;100.00;98628.63;4834461;29;20370;-79
2020/12/07 07:13:39;;;;;;;;;;;;;;;2.31;100.00;98619.50;4837696;29;20393;-78
2020/12/07 07:16:06;;;;;;;;;;;;;;;2.27;100.00;98618.69;4841738;29;19929;-79
2020/12/07 07:18:32;;;;;;;;;;;;;;;2.26;100.00;98619.06;4842851;29;20010;-79
2020/12/07 07:20:59;;;;;;;;;;;;;;;2.42;100.00;98628.69;4842114;29;19932;-79
2020/12/07 07:23:26;;;;;;;;;;;;;;;2.34;100.00;98623.47;4840636;29;19936;-79
2020/12/07 07:25:59;;;;;;;;;;;;;;;2.25;100.00;98609.19;4839484;29;20296;-80
2020/12/07 07:28:28;;;;;;;;;;;;;;;2.30;100.00;98614.38;4841596;29;20039;-81
2020/12/07 07:30:55;;;;;;;;;;;;;;;2.26;100.00;98617.09;4841343;29;19935;-80
2020/12/07 07:33:24;;;;;;;;;;;;;;;2.24;100.00;98616.69;4841291;29;19932;-79
2020/12/07 07:35:58;;;;;;;;;;;;;;;2.32;100.00;98623.84;4840936;29;19981;-79
2020/12/07 07:38:31;;;;;;;;;;;;;;;2.29;100.00;98623.81;4825402;29;19934;-79
2020/12/07 07:40:58;;;;;;;;;;;;;;;2.25;100.00;98628.50;4840296;29;20615;-79
2020/12/07 07:43:25;;;;;;;;;;;;;;;2.22;100.00;98624.53;4840414;29;20046;-79
2020/12/07 07:45:58;;;;;;;;;;;;;;;2.20;100.00;98631.59;4841910;29;19939;-80
2020/12/07 07:48:46;;;;;;;;;;;;;;;2.16;100.00;98619.75;4841824;29;19958;-80
2020/12/07 07:57:49;;;;;;;;;;;;;;;2.27;100.00;98624.22;4843466;29;19929;-78
2020/12/07 08:15:56;;;;;;;;;;;;;;;2.33;100.00;98619.13;4758283;30;19934;-81
2020/12/07 08:18:31;;;;;;;;;;;;;;;2.40;100.00;98624.69;4772835;29;19930;-81
2020/12/07 08:21:01;;;;;;;;;;;;;;;2.37;100.00;98626.25;4773100;30;19930;-80
2020/12/07 08:23:29;;;;;;;;;;;;;;;2.31;100.00;98624.22;4772679;30;20302;-81
2020/12/07 08:26:01;;;;;;;;;;;;;;;2.34;100.00;98627.03;4773368;30;19930;-81
2020/12/07 08:28:35;;;;;;;;;;;;;;;2.48;100.00;98626.34;4773186;30;19936;-80
2020/12/07 08:31:12;;;;;;;;;;;;;;;2.33;100.00;98614.41;4773148;30;19933;-80
2020/12/07 08:33:55;;;;;;;;;;;;;;;2.37;100.00;98614.44;4788146;30;19937;-80
2020/12/07 08:36:22;;;;;;;;;;;;;;;2.37;100.00;98603.41;4772683;29;20442;-79
2020/12/07 08:38:49;;;;;;;;;;;;;;;2.24;100.00;98599.34;4772451;30;19929;-78
2020/12/07 08:41:18;;;;;;;;;;;;;;;2.28;100.00;98594.66;4798963;29;19939;-79
2020/12/07 08:43:46;;;;;;;;;;;;;;;2.42;100.00;98603.06;4808565;29;19935;-79
2020/12/07 08:46:15;;;;;;;;;;;;;;;2.58;100.00;98593.34;4829368;29;20365;-78
2020/12/07 08:48:41;;;;;;;;;;;;;;;2.66;100.00;98608.00;4842792;29;19932;-79
2020/12/07 08:51:09;;;;;;;;;;;;;;;2.67;100.00;98602.09;4844049;29;19928;-79
2020/12/07 08:53:39;;;;;;;;;;;;;;;2.75;100.00;98603.75;4842653;29;19960;-79
2020/12/07 08:56:09;;;;;;;;;;;;;;;2.79;100.00;98603.75;4858127;29;19976;-79
2020/12/07 08:58:36;;;;;;;;;;;;;;;2.80;100.00;98602.59;4858157;29;19950;-80
2020/12/07 09:01:04;;;;;;;;;;;;;;;2.89;100.00;98608.56;4843294;29;19964;-79
2020/12/07 09:03:31;;;;;;;;;;;;;;;2.92;100.00;98603.06;4841586;29;19978;-78
2020/12/07 09:05:59;;;;;;;;;;;;;;;2.94;100.00;98605.47;4836443;29;19957;-78
2020/12/07 09:08:26;;;;;;;;;;;;;;;2.95;100.00;98601.50;4841334;29;20514;-78
2020/12/07 09:10:53;;;;;;;;;;;;;;;2.98;100.00;98601.53;4842407;29;19932;-79
2020/12/07 09:13:19;;;;;;;;;;;;;;;3.00;100.00;98593.66;4857851;29;19957;-80
2020/12/07 09:15:45;;;;;;;;;;;;;;;2.82;100.00;98589.97;4843741;29;20406;-79
2020/12/07 09:18:12;;;;;;;;;;;;;;;2.86;100.00;98587.25;4843592;29;19929;-80
2020/12/07 09:20:39;;;;;;;;;;;;;;;2.95;100.00;98579.44;4842364;29;20317;-79
2020/12/07 09:23:05;;;;;;;;;;;;;;;3.03;100.00;98586.59;4857737;29;20027;-79
2020/12/07 09:25:32;;;;;;;;;;;;;;;3.13;100.00;98580.31;4857485;29;19932;-80
2020/12/07 09:27:58;;;;;;;;;;;;;;;3.18;100.00;98589.03;4842022;29;20020;-80
2020/12/07 09:30:25;;;;;;;;;;;;;;;3.20;100.00;98575.63;4857090;29;19929;-79
2020/12/07 09:32:51;;;;;;;;;;;;;;;3.00;100.00;98565.28;4842009;29;19933;-79
2020/12/07 09:35:18;;;;;;;;;;;;;;;3.03;100.00;98564.50;4843603;29;19935;-79
2020/12/07 09:37:52;;;;;;;;;;;;;;;3.07;100.00;98570.84;4842445;29;19928;-79
2020/12/07 09:40:21;;;;;;;;;;;;;;;3.16;100.00;98574.03;4827336;29;19933;-77
2020/12/07 09:42:48;;;;;;;;;;;;;;;2.94;100.00;98564.06;4841997;29;19935;-75
2020/12/07 09:45:15;;;;;;;;;;;;;;;2.97;100.00;98574.31;4842954;29;19936;-75
2020/12/07 09:47:41;;;;;;;;;;;;;;;2.83;100.00;98563.19;4857002;29;20031;-73
2020/12/07 09:50:09;;;;;;;;;;;;;;;2.84;100.00;98567.53;4841495;29;19929;-76
2020/12/07 09:52:36;;;;;;;;;;;;;;;2.72;100.00;98549.34;4841660;29;20297;-77
2020/12/07 09:55:05;;;;;;;;;;;;;;;2.67;100.00;98549.69;4841874;29;19985;-77
2020/12/07 09:57:32;;;;;;;;;;;;;;;2.69;100.00;98544.59;4811463;29;20396;-77
2020/12/07 09:59:59;;;;;;;;;;;;;;;2.77;100.00;98543.44;4817101;29;19993;-73
2020/12/07 10:02:26;;;;;;;;;;;;;;;2.94;100.00;98553.03;4834812;29;19932;-73
2020/12/07 10:04:53;;;;;;;;;;;;;;;2.76;100.00;98538.28;4837259;29;19986;-79
2020/12/07 10:07:20;;;;;;;;;;;;;;;2.51;100.00;98518.03;4838206;29;19955;-78
2020/12/07 10:09:46;;;;;;;;;;;;;;;2.53;100.00;98518.47;4838144;29;20000;-78
2020/12/07 10:12:13;;;;;;;;;;;;;;;2.63;100.00;98520.50;4838252;29;19977;-73
2020/12/07 10:14:39;;;;;;;;;;;;;;;2.58;100.00;98520.84;4837331;29;19947;-73
2020/12/07 10:17:06;;;;;;;;;;;;;;;2.56;100.00;98518.47;4838318;29;19936;-73
2020/12/07 10:19:32;;;;;;;;;;;;;;;2.63;100.00;98512.22;4838576;29;20415;-73
2020/12/07 10:22:02;;;;;;;;;;;;;;;2.77;100.00;98523.34;4838110;29;19928;-73
2020/12/07 10:24:28;;;;;;;;;;;;;;;2.91;100.00;98528.94;4839550;29;19932;-74
2020/12/07 10:26:55;;;;;;;;;;;;;;;3.11;100.00;98541.25;4839010;29;19966;-73
2020/12/07 10:29:21;;;;;;;;;;;;;;;3.28;100.00;98537.81;4838336;29;19932;-74
2020/12/07 10:31:48;;;;;;;;;;;;;;;3.25;100.00;98544.09;4836808;29;19951;-74
2020/12/07 10:34:15;;;;;;;;;;;;;;;3.35;100.00;98552.44;4838000;29;19935;-74
2020/12/07 10:36:45;;;;;;;;;;;;;;;3.39;100.00;98544.19;4837193;29;19966;-73
2020/12/07 10:39:11;;;;;;;;;;;;;;;3.28;100.00;98537.81;4852395;29;20018;-75
2020/12/07 10:41:38;;;;;;;;;;;;;;;3.21;100.00;98538.56;4839201;29;19936;-74
2020/12/07 10:44:04;;;;;;;;;;;;;;;3.15;100.00;98522.78;4841563;29;19939;-74
2020/12/07 10:46:31;;;;;;;;;;;;;;;2.97;100.00;98516.38;4841092;29;20274;-73
2020/12/07 10:48:57;;;;;;;;;;;;;;;2.91;100.00;98506.84;4840049;29;19940;-73
2020/12/07 10:51:23;;;;;;;;;;;;;;;2.88;100.00;98499.34;4841782;29;20346;-74
2020/12/07 10:53:50;;;;;;;;;;;;;;;3.09;100.00;98507.75;4842319;29;19933;-74
2020/12/07 10:56:16;;;;;;;;;;;;;;;3.27;100.00;98500.34;4840308;29;20023;-73
2020/12/07 10:58:43;;;;;;;;;;;;;;;3.52;100.00;98524.09;4841915;29;19929;-73
2020/12/07 11:01:10;;;;;;;;;;;;;;;3.71;100.00;98528.50;4840520;29;19929;-74
2020/12/07 11:03:37;;;;;;;;;;;;;;;3.82;100.00;98525.75;4855330;29;19928;-73
2020/12/07 11:06:30;;;;;;;;;;;;;;;3.93;100.00;98535.66;4840769;29;20035;-73
2020/12/07 11:08:55;;;;;;;;;;;;;;;3.95;100.00;98535.25;4839087;29;19944;-74
2020/12/07 11:11:22;;;;;;;;;;;;;;;4.00;100.00;98530.13;4842080;29;19939;-79
2020/12/07 11:13:49;;;;;;;;;;;;;;;4.10;100.00;98534.88;4840331;29;20033;-78
2020/12/07 11:16:16;;;;;;;;;;;;;;;3.93;100.00;98519.06;4840930;29;19929;-74
2020/12/07 11:18:54;;;;;;;;;;;;;;;3.66;100.00;98504.00;4839597;29;19929;-79
2020/12/07 11:21:21;;;;;;;;;;;;;;;3.57;100.00;98498.06;4840046;29;19928;-75
2020/12/07 11:23:48;;;;;;;;;;;;;;;3.63;100.00;98488.22;4840150;29;20340;-75
2020/12/07 11:26:16;;;;;;;;;;;;;;;3.70;100.00;98483.50;4839708;29;19967;-76
2020/12/07 11:28:42;;;;;;;;;;;;;;;3.67;100.00;98467.69;4840276;29;19935;-76
2020/12/07 11:31:10;;;;;;;;;;;;;;;3.64;100.00;98454.66;4839531;29;19936;-76
2020/12/07 11:33:37;;;;;;;;;;;;;;;3.63;100.00;98444.00;4838434;29;20358;-75
2020/12/07 11:36:10;;;;;;;;;;;;;;;3.52;100.00;98429.38;4840087;29;20281;-78
2020/12/07 11:38:48;;;;;;;;;;;;;;;3.46;100.00;98412.41;4840304;29;20063;-79
2020/12/07 11:41:35;;;;;;;;;;;;;;;3.43;100.00;98393.06;4824158;29;19939;-80
2020/12/07 11:44:16;;;;;;;;;;;;;;;3.26;100.00;98388.31;4854664;29;19928;-80
2020/12/07 11:49:13;;;;;;;;;;;;;;;3.03;100.00;98363.81;4838078;29;19928;-79
2020/12/07 11:51:39;;;;;;;;;;;;;;;3.08;100.00;98355.16;4839820;29;20088;-79
2020/12/07 11:54:06;;;;;;;;;;;;;;;3.13;100.00;98351.22;4839695;29;19967;-81
2020/12/07 11:56:36;;;;;;;;;;;;;;;3.21;100.00;98339.00;4840426;29;20016;-80
2020/12/07 11:59:03;;;;;;;;;;;;;;;3.26;100.00;98344.94;4840037;29;19939;-80
2020/12/07 12:01:32;;;;;;;;;;;;;;;3.22;100.00;98335.06;4855457;29;19971;-80
2020/12/07 12:03:59;;;;;;;;;;;;;;;3.02;100.00;98320.03;4856473;29;20502;-80
2020/12/07 12:06:26;;;;;;;;;;;;;;;3.01;100.00;98304.66;4855571;29;20011;-80
2020/12/07 12:08:53;;;;;;;;;;;;;;;2.92;100.00;98293.22;4841970;29;19992;-80
2020/12/07 12:11:20;;;;;;;;;;;;;;;2.82;100.00;98283.72;4813037;29;19928;-81
2020/12/07 12:13:46;;;;;;;;;;;;;;;2.78;100.00;98271.91;4843111;29;19935;-77
2020/12/07 12:16:13;;;;;;;;;;;;;;;2.69;100.00;98256.91;4858275;29;19928;-78
2020/12/07 12:18:40;;;;;;;;;;;;;;;2.64;100.00;98243.50;4842819;29;19978;-76
2020/12/07 12:21:07;;;;;;;;;;;;;;;2.64;100.00;98243.50;4843130;29;20401;-78
2020/12/07 12:23:36;;;;;;;;;;;;;;;2.71;100.00;98241.53;4828100;29;19935;-78
2020/12/07 12:26:02;;;;;;;;;;;;;;;2.80;100.00;98241.19;4844303;29;19937;-78
2020/12/07 12:28:32;;;;;;;;;;;;;;;2.85;100.00;98238.81;4843690;29;20388;-79
2020/12/07 12:31:14;;;;;;;;;;;;;;;2.93;100.00;98236.84;4807533;29;20051;-77
2020/12/07 12:33:43;;;;;;;;;;;;;;;2.95;100.00;98228.97;4822513;29;19964;-77
2020/12/07 12:36:20;;;;;;;;;;;;;;;3.08;100.00;98216.34;4843481;29;19936;-77
2020/12/07 12:38:48;;;;;;;;;;;;;;;3.03;100.00;98200.22;4833644;29;19934;-77
2020/12/07 12:41:14;;;;;;;;;;;;;;;3.04;100.00;98152.91;4838198;29;19956;-77
2020/12/07 12:43:42;;;;;;;;;;;;;;;3.11;100.00;98146.56;4852992;29;19958;-78
2020/12/07 12:46:08;;;;;;;;;;;;;;;3.14;100.00;98135.53;4851105;29;19935;-77
2020/12/07 12:48:35;;;;;;;;;;;;;;;3.10;100.00;98114.63;4840322;29;20385;-82
2020/12/07 12:51:02;;;;;;;;;;;;;;;3.18;100.00;98099.66;4840527;29;19939;-81
2020/12/07 12:53:28;;;;;;;;;;;;;;;3.17;100.00;98082.28;4839267;29;20500;-81
2020/12/07 12:55:56;;;;;;;;;;;;;;;3.27;100.00;98080.69;4839996;29;20369;-80
2020/12/07 12:58:23;;;;;;;;;;;;;;;3.23;100.00;98061.38;4838857;29;19932;-81
2020/12/07 13:00:49;;;;;;;;;;;;;;;3.19;100.00;98051.53;4839646;29;19929;-81
2020/12/07 13:03:16;;;;;;;;;;;;;;;3.21;100.00;98035.34;4840077;29;20013;-81
2020/12/07 13:05:43;;;;;;;;;;;;;;;3.19;100.00;98027.47;4838719;29;20289;-82
2020/12/07 13:08:10;;;;;;;;;;;;;;;3.36;100.00;98026.59;4839757;29;19928;-82
2020/12/07 13:10:38;;;;;;;;;;;;;;;3.27;100.00;98008.91;4824115;29;19972;-81
2020/12/07 13:13:05;;;;;;;;;;;;;;;3.38;100.00;98009.63;4854873;29;20316;-82
2020/12/07 13:15:32;;;;;;;;;;;;;;;3.32;100.00;98000.19;4840597;29;19928;-82
2020/12/07 13:18:07;;;;;;;;;;;;;;;3.31;100.00;97979.31;4824317;29;19935;-84
2020/12/07 13:20:39;;;;;;;;;;;;;;;3.41;100.00;97989.50;4854368;29;20342;-84
2020/12/07 13:23:13;;;;;;;;;;;;;;;3.46;100.00;97815.91;4854726;29;19929;-84